Time;durP1;ratioP1;P1;durP2;ratioP2;P2;SDS_P1;SDS_P2;PMS_P1;PMS_P2;Temp;Humidity;BMP_temperature;BMP_pressure;BME280_temperature;BME280_humidity;BME280_pressure;Samples;Min_cycle;Max_cycle;Signal;HPM_P1;HPM_P2
2023/03/25 00:01:03;;;;;;;18.30;3.97;;;9.90;99.90;;;;;;4994222;28;20168;-66
2023/03/25 00:03:34;;;;;;;16.50;3.08;;;9.90;99.90;;;;;;4987752;28;20132;-66
2023/03/25 00:06:00;;;;;;;22.25;3.60;;;9.90;99.90;;;;;;4977218;28;20540;-65
2023/03/25 00:08:26;;;;;;;21.33;4.13;;;9.90;99.90;;;;;;4999981;28;20053;-65
2023/03/25 00:10:57;;;;;;;21.35;4.03;;;9.90;99.90;;;;;;4977784;28;20056;-65
2023/03/25 00:13:24;;;;;;;18.58;2.80;;;9.90;99.90;;;;;;4998234;28;20132;-65
2023/03/25 00:15:57;;;;;;;21.52;3.53;;;9.90;99.90;;;;;;4974037;28;20049;-66
2023/03/25 00:18:25;;;;;;;24.55;3.88;;;9.90;99.90;;;;;;5000792;28;20049;-67
2023/03/25 00:20:52;;;;;;;17.67;3.47;;;9.90;99.90;;;;;;4998392;28;20049;-66
2023/03/25 00:23:19;;;;;;;16.42;2.83;;;9.90;99.90;;;;;;4995397;28;20057;-65
2023/03/25 00:25:46;;;;;;;22.38;3.95;;;9.90;99.90;;;;;;4998553;28;20053;-66
2023/03/25 00:28:13;;;;;;;19.13;3.20;;;9.90;99.90;;;;;;4987193;28;21678;-65
2023/03/25 00:30:44;;;;;;;21.65;3.47;;;9.90;99.90;;;;;;4995866;28;20081;-65
2023/03/25 00:33:12;;;;;;;18.45;3.63;;;9.90;99.90;;;;;;4968705;28;20152;-65
2023/03/25 00:35:43;;;;;;;23.63;3.42;;;9.80;99.90;;;;;;4979636;28;20041;-66
2023/03/25 00:38:12;;;;;;;21.13;3.55;;;9.90;99.90;;;;;;4994409;28;20052;-67
2023/03/25 00:40:39;;;;;;;19.20;3.17;;;9.80;99.90;;;;;;4992794;28;20164;-65
2023/03/25 00:43:06;;;;;;;16.25;2.97;;;9.80;99.90;;;;;;4994487;28;20038;-67
2023/03/25 00:45:32;;;;;;;24.02;3.55;;;9.80;99.90;;;;;;5002094;28;20048;-66
2023/03/25 00:47:58;;;;;;;23.15;3.58;;;9.80;99.90;;;;;;4979447;28;20054;-66
2023/03/25 00:50:25;;;;;;;18.58;3.72;;;9.70;99.90;;;;;;5003240;28;20122;-66
2023/03/25 00:52:53;;;;;;;16.20;3.42;;;9.70;99.90;;;;;;4984013;28;20045;-66
2023/03/25 00:55:20;;;;;;;27.38;4.20;;;9.70;99.90;;;;;;4977018;28;20058;-66
2023/03/25 00:57:46;;;;;;;26.60;3.38;;;9.70;99.90;;;;;;4973613;28;21763;-64
2023/03/25 01:00:15;;;;;;;24.77;3.92;;;9.70;99.90;;;;;;4994098;28;20056;-67
2023/03/25 01:02:42;;;;;;;23.80;3.67;;;9.70;99.90;;;;;;5003203;28;20140;-65
2023/03/25 01:05:09;;;;;;;25.80;4.07;;;9.70;99.90;;;;;;4990989;28;20835;-64
2023/03/25 01:07:36;;;;;;;26.08;3.80;;;9.70;99.90;;;;;;5004352;28;20085;-65
2023/03/25 01:10:04;;;;;;;21.70;3.97;;;9.70;99.90;;;;;;5002643;28;20045;-66
2023/03/25 01:12:30;;;;;;;27.58;4.45;;;9.70;99.90;;;;;;4993213;28;20069;-66
2023/03/25 01:14:56;;;;;;;27.60;4.68;;;9.70;99.90;;;;;;5005502;28;20459;-66
2023/03/25 01:17:22;;;;;;;28.35;5.38;;;9.70;99.90;;;;;;4990144;28;20057;-65
2023/03/25 01:19:48;;;;;;;22.10;4.50;;;9.60;99.90;;;;;;4983459;28;20492;-67
2023/03/25 01:22:14;;;;;;;22.83;4.07;;;9.50;99.90;;;;;;4992020;28;20432;-65
2023/03/25 01:24:40;;;;;;;27.17;4.75;;;9.50;99.90;;;;;;5008719;28;20053;-65
2023/03/25 01:27:05;;;;;;;26.70;3.95;;;9.50;99.90;;;;;;4991978;28;20049;-65
2023/03/25 01:29:31;;;;;;;22.88;4.80;;;9.50;99.90;;;;;;4993256;28;20407;-65
2023/03/25 01:31:57;;;;;;;23.60;4.43;;;9.50;99.90;;;;;;4989619;28;20068;-66
2023/03/25 01:34:23;;;;;;;28.88;3.80;;;9.40;99.90;;;;;;4978756;28;20389;-66
2023/03/25 01:36:49;;;;;;;24.85;3.92;;;9.40;99.90;;;;;;4981406;28;20050;-66
2023/03/25 01:39:17;;;;;;;25.73;4.05;;;9.40;99.90;;;;;;4975620;28;20052;-65
2023/03/25 01:41:45;;;;;;;29.17;4.30;;;9.40;99.90;;;;;;5007654;28;20049;-65
2023/03/25 01:44:23;;;;;;;30.17;4.65;;;9.30;99.90;;;;;;4991941;28;20045;-65
2023/03/25 01:46:52;;;;;;;28.33;4.53;;;9.30;99.90;;;;;;4957907;28;20093;-67
2023/03/25 01:49:28;;;;;;;34.83;5.38;;;9.30;99.90;;;;;;4994930;28;20090;-66
2023/03/25 01:52:10;;;;;;;28.05;4.65;;;9.30;99.90;;;;;;4989034;28;20488;-66
2023/03/25 01:54:37;;;;;;;26.80;4.25;;;9.30;99.90;;;;;;4959016;28;20117;-66
2023/03/25 01:57:05;;;;;;;24.00;4.05;;;9.30;99.90;;;;;;4956342;28;20143;-66
2023/03/25 01:59:31;;;;;;;32.25;5.32;;;9.30;99.90;;;;;;4971543;28;20046;-67
2023/03/25 02:02:01;;;;;;;26.67;4.63;;;9.20;99.90;;;;;;4964294;28;20069;-67
2023/03/25 02:04:57;;;;;;;27.98;4.88;;;9.20;99.90;;;;;;4961392;28;20066;-66
2023/03/25 02:07:36;;;;;;;28.13;4.80;;;9.20;99.90;;;;;;4951013;28;20174;-67
2023/03/25 02:10:08;;;;;;;30.52;5.10;;;9.20;99.90;;;;;;4977584;28;20424;-67
2023/03/25 02:12:33;;;;;;;29.25;4.45;;;9.20;99.90;;;;;;4976284;28;20045;-67
2023/03/25 02:15:03;;;;;;;34.08;4.93;;;9.10;99.90;;;;;;4967389;28;20038;-66
2023/03/25 02:17:54;;;;;;;35.80;5.22;;;9.10;99.90;;;;;;4967770;28;20042;-66
2023/03/25 02:20:57;;;;;;;31.20;5.13;;;9.10;99.90;;;;;;4968641;28;20577;-66
2023/03/25 02:23:44;;;;;;;29.58;5.35;;;9.10;99.90;;;;;;4971380;28;20133;-65
2023/03/25 02:26:42;;;;;;;30.15;5.38;;;9.10;99.90;;;;;;4966556;28;20054;-66
2023/03/25 02:29:35;;;;;;;27.92;5.50;;;9.10;99.90;;;;;;4972914;28;20047;-66
2023/03/25 02:32:29;;;;;;;25.80;5.22;;;9.10;99.90;;;;;;4986247;28;20046;-67
2023/03/25 02:35:15;;;;;;;36.03;4.53;;;9.10;99.90;;;;;;4972229;28;20145;-65
2023/03/25 02:37:57;;;;;;;40.50;6.15;;;9.10;99.90;;;;;;4962334;28;20168;-67
2023/03/25 02:40:43;;;;;;;32.80;5.30;;;9.10;99.90;;;;;;4990749;28;20050;-65
2023/03/25 02:43:17;;;;;;;30.35;4.53;;;9.10;99.90;;;;;;4974278;28;20034;-67
2023/03/25 02:45:50;;;;;;;29.35;5.32;;;9.00;99.90;;;;;;4948706;28;20047;-66
2023/03/25 02:48:22;;;;;;;42.42;5.07;;;9.10;99.90;;;;;;4987209;28;20042;-66
2023/03/25 02:50:52;;;;;;;44.13;5.47;;;9.10;99.90;;;;;;4971281;28;20089;-66
2023/03/25 02:53:25;;;;;;;37.17;5.25;;;9.10;99.90;;;;;;4971169;28;20329;-66
2023/03/25 02:55:53;;;;;;;36.45;5.57;;;9.00;99.90;;;;;;4991462;28;20136;-68
2023/03/25 02:58:20;;;;;;;27.80;5.38;;;9.00;99.90;;;;;;4992939;28;20038;-66
2023/03/25 03:00:49;;;;;;;35.50;5.10;;;9.10;99.90;;;;;;4967744;28;20485;-65
2023/03/25 03:03:15;;;;;;;31.23;4.75;;;9.00;99.90;;;;;;4975684;28;20065;-66
2023/03/25 03:05:44;;;;;;;25.88;4.80;;;9.10;99.90;;;;;;5001626;28;20042;-65
2023/03/25 03:08:29;;;;;;;31.08;4.97;;;9.00;99.90;;;;;;4997411;28;20046;-67
2023/03/25 03:11:18;;;;;;;24.85;4.68;;;9.00;99.90;;;;;;4990141;28;20099;-67
2023/03/25 03:13:58;;;;;;;29.75;5.05;;;9.00;99.90;;;;;;4989807;28;20080;-65
2023/03/25 03:16:47;;;;;;;26.92;4.88;;;9.00;99.90;;;;;;4978001;28;20046;-67
2023/03/25 03:19:13;;;;;;;31.58;4.45;;;9.00;99.90;;;;;;4994269;28;20890;-66
2023/03/25 03:21:50;;;;;;;30.02;4.43;;;9.00;99.90;;;;;;4988950;28;20400;-65
2023/03/25 03:24:23;;;;;;;31.95;5.20;;;9.10;99.90;;;;;;4963014;28;20073;-65
2023/03/25 03:26:48;;;;;;;;;;;9.00;99.90;;;;;;4990087;28;20046;-66
2023/03/25 03:29:44;;;;;;;31.77;5.20;;;9.00;99.90;;;;;;4985075;28;19926;-66
2023/03/25 03:32:17;;;;;;;30.17;6.00;;;9.00;99.90;;;;;;4981362;28;20061;-65
2023/03/25 03:34:51;;;;;;;34.20;5.18;;;9.10;99.90;;;;;;4989529;28;20080;-65
2023/03/25 03:37:27;;;;;;;30.83;4.30;;;9.10;99.90;;;;;;4986790;28;20042;-66
2023/03/25 03:39:54;;;;;;;29.15;4.68;;;9.10;99.90;;;;;;5001995;28;20041;-66
2023/03/25 03:42:40;;;;;;;31.15;5.03;;;9.10;99.90;;;;;;4994079;28;20520;-66
2023/03/25 03:45:13;;;;;;;29.05;4.35;;;9.10;99.90;;;;;;5003997;28;20057;-66
2023/03/25 03:47:46;;;;;;;31.98;4.82;;;9.10;99.90;;;;;;5005110;28;20042;-65
2023/03/25 03:50:17;;;;;;;29.15;5.05;;;9.10;99.90;;;;;;4991937;28;21729;-65
2023/03/25 03:53:05;;;;;;;34.40;5.30;;;9.10;99.90;;;;;;5001257;28;21044;-65
2023/03/25 03:55:39;;;;;;;32.35;5.32;;;9.10;99.90;;;;;;4966120;28;20640;-66
2023/03/25 03:58:14;;;;;;;28.15;4.82;;;9.10;99.90;;;;;;4982346;28;20041;-65
2023/03/25 04:01:05;;;;;;;30.67;4.68;;;9.10;99.90;;;;;;4957201;28;20062;-67
2023/03/25 04:03:49;;;;;;;31.73;5.10;;;9.10;99.90;;;;;;4952060;28;20222;-65
2023/03/25 04:06:20;;;;;;;26.33;4.65;;;9.10;99.90;;;;;;4939694;28;20050;-67
2023/03/25 04:08:57;;;;;;;36.72;5.03;;;9.00;99.90;;;;;;4976129;28;20052;-66
2023/03/25 04:11:36;;;;;;;30.42;4.95;;;9.10;99.90;;;;;;4964264;28;20043;-66
2023/03/25 04:14:04;;;;;;;30.13;4.90;;;9.00;99.90;;;;;;4972292;28;20742;-67
2023/03/25 04:16:31;;;;;;;29.60;4.75;;;9.00;99.90;;;;;;4966832;28;20057;-65
2023/03/25 04:18:57;;;;;;;29.65;4.68;;;9.00;99.90;;;;;;4953613;28;20057;-65
2023/03/25 04:21:24;;;;;;;32.28;4.50;;;9.00;99.90;;;;;;4964958;28;20046;-67
2023/03/25 04:23:50;;;;;;;31.27;5.72;;;9.00;99.90;;;;;;4956755;28;20043;-66
2023/03/25 04:26:16;;;;;;;30.73;5.07;;;9.00;99.90;;;;;;4955571;28;20194;-66
2023/03/25 04:28:43;;;;;;;31.55;5.93;;;9.00;99.90;;;;;;4977150;28;20050;-67
2023/03/25 04:31:14;;;;;;;35.95;5.88;;;9.00;99.90;;;;;;4960876;28;20103;-65
2023/03/25 04:33:45;;;;;;;32.28;4.78;;;9.00;99.90;;;;;;4975771;28;20061;-66
2023/03/25 04:36:12;;;;;;;27.95;5.47;;;9.00;99.90;;;;;;4953695;28;20074;-66
2023/03/25 04:38:39;;;;;;;29.70;5.40;;;9.00;99.90;;;;;;4982914;28;20121;-65
2023/03/25 04:41:06;;;;;;;30.20;4.90;;;9.00;99.90;;;;;;4968481;28;20057;-66
2023/03/25 04:43:32;;;;;;;26.17;4.97;;;9.00;99.90;;;;;;4971177;28;20067;-65
2023/03/25 04:45:59;;;;;;;32.75;5.25;;;9.00;99.90;;;;;;4961351;28;20116;-66
2023/03/25 04:48:34;;;;;;;30.35;5.60;;;9.00;99.90;;;;;;4975350;28;20054;-65
2023/03/25 04:51:02;;;;;;;28.98;5.30;;;9.00;99.90;;;;;;4966965;28;20058;-67
2023/03/25 04:53:28;;;;;;;30.60;4.90;;;9.00;99.90;;;;;;4982806;28;20052;-67
2023/03/25 04:55:55;;;;;;;35.63;5.80;;;9.00;99.90;;;;;;4979865;28;20046;-65
2023/03/25 04:58:21;;;;;;;29.25;4.95;;;9.00;99.90;;;;;;5005039;28;20119;-67
2023/03/25 05:00:51;;;;;;;31.77;5.03;;;9.00;99.90;;;;;;4956611;28;20056;-66
2023/03/25 05:03:23;;;;;;;36.13;5.47;;;9.00;99.90;;;;;;4997178;28;20057;-67
2023/03/25 05:05:52;;;;;;;30.83;5.43;;;9.00;99.90;;;;;;4992489;28;20612;-65
2023/03/25 05:08:20;;;;;;;25.15;5.10;;;8.90;99.90;;;;;;5005262;28;20092;-66
2023/03/25 05:10:46;;;;;;;36.20;5.13;;;8.90;99.90;;;;;;4974741;28;20061;-65
2023/03/25 05:13:12;;;;;;;32.38;4.80;;;8.90;99.90;;;;;;4967441;28;20113;-65
2023/03/25 05:15:38;;;;;;;28.30;4.80;;;8.90;99.90;;;;;;4990565;28;20190;-65
2023/03/25 05:18:12;;;;;;;26.08;4.65;;;8.90;99.90;;;;;;5008923;28;20068;-66
2023/03/25 05:20:43;;;;;;;30.35;5.32;;;8.90;99.90;;;;;;4990714;28;20150;-66
2023/03/25 05:23:14;;;;;;;25.05;4.15;;;8.90;99.90;;;;;;4998097;28;20079;-67
2023/03/25 05:25:41;;;;;;;28.05;5.03;;;8.90;99.90;;;;;;4994259;28;20060;-65
2023/03/25 05:28:08;;;;;;;29.80;5.25;;;8.90;99.90;;;;;;4975801;28;20175;-65
2023/03/25 05:30:38;;;;;;;23.65;4.78;;;8.90;99.90;;;;;;4978201;28;20045;-65
2023/03/25 05:33:11;;;;;;;36.75;5.07;;;8.90;99.90;;;;;;4985127;28;20092;-65
2023/03/25 05:35:38;;;;;;;25.55;4.53;;;8.90;99.90;;;;;;4994664;28;20589;-65
2023/03/25 05:38:06;;;;;;;33.42;4.78;;;8.90;99.90;;;;;;4996616;28;20093;-65
2023/03/25 05:40:33;;;;;;;27.67;5.35;;;8.90;99.90;;;;;;4981674;28;20965;-65
2023/03/25 05:42:59;;;;;;;25.98;4.55;;;8.90;99.90;;;;;;4988518;28;20056;-64
2023/03/25 05:45:25;;;;;;;33.40;5.38;;;9.00;99.90;;;;;;4975302;28;20496;-67
2023/03/25 05:47:51;;;;;;;31.35;5.32;;;8.90;99.90;;;;;;4978086;28;20045;-67
2023/03/25 05:50:17;;;;;;;31.90;4.97;;;8.90;99.90;;;;;;4970199;28;20054;-66
2023/03/25 05:52:44;;;;;;;33.95;5.25;;;8.90;99.90;;;;;;4979402;28;20483;-66
2023/03/25 05:55:14;;;;;;;27.10;5.30;;;8.90;99.90;;;;;;4991917;28;20057;-65
2023/03/25 05:57:40;;;;;;;30.90;4.97;;;8.90;99.90;;;;;;4984774;28;20536;-66
2023/03/25 06:00:07;;;;;;;28.75;5.07;;;8.90;99.90;;;;;;4980550;28;20059;-67
2023/03/25 06:02:37;;;;;;;31.75;5.05;;;8.90;99.90;;;;;;4975925;28;20057;-66
2023/03/25 06:05:05;;;;;;;33.38;5.63;;;8.90;99.90;;;;;;5004823;28;20108;-65
2023/03/25 06:07:31;;;;;;;34.50;5.63;;;8.90;99.90;;;;;;4992343;28;20052;-67
2023/03/25 06:09:57;;;;;;;34.33;5.38;;;8.90;99.90;;;;;;4982993;28;20108;-65
2023/03/25 06:12:26;;;;;;;43.92;6.03;;;8.90;99.90;;;;;;4983399;28;20591;-67
2023/03/25 06:14:52;;;;;;;36.35;5.97;;;8.90;99.90;;;;;;5002388;28;20041;-64
2023/03/25 06:17:23;;;;;;;29.08;4.70;;;8.90;99.90;;;;;;4977904;28;20045;-65
2023/03/25 06:19:50;;;;;;;32.35;4.32;;;8.90;99.90;;;;;;4987338;28;20876;-66
2023/03/25 06:22:16;;;;;;;30.88;5.53;;;8.90;99.90;;;;;;5004928;28;20412;-67
2023/03/25 06:24:42;;;;;;;33.45;4.95;;;8.90;99.90;;;;;;5006523;28;20041;-65
2023/03/25 06:27:12;;;;;;;34.15;5.00;;;9.00;99.90;;;;;;5002696;28;20042;-66
2023/03/25 06:29:40;;;;;;;29.85;5.30;;;9.00;99.90;;;;;;4992402;28;20046;-66
2023/03/25 06:32:07;;;;;;;37.65;5.13;;;9.00;99.90;;;;;;4973320;28;20123;-64
2023/03/25 06:34:33;;;;;;;36.63;5.60;;;9.00;99.90;;;;;;4961361;28;20057;-66
2023/03/25 06:37:00;;;;;;;24.25;4.65;;;9.00;99.90;;;;;;4942617;28;20080;-67
2023/03/25 06:39:30;;;;;;;31.45;4.80;;;8.90;99.90;;;;;;4977245;28;20049;-65
2023/03/25 06:41:59;;;;;;;26.75;5.20;;;8.90;99.90;;;;;;4984414;28;21305;-67
2023/03/25 06:44:26;;;;;;;29.65;4.47;;;8.90;99.90;;;;;;4994476;28;20046;-67
2023/03/25 06:46:52;;;;;;;27.70;5.93;;;8.80;99.90;;;;;;4985467;28;20041;-64
2023/03/25 06:49:18;;;;;;;30.30;5.03;;;8.80;99.90;;;;;;4990047;28;21248;-67
2023/03/25 06:51:44;;;;;;;33.40;5.05;;;8.80;99.90;;;;;;5003949;28;20643;-64
2023/03/25 06:54:10;;;;;;;28.23;4.63;;;8.80;99.90;;;;;;4948652;28;20061;-64
2023/03/25 06:56:36;;;;;;;27.67;4.55;;;8.80;99.90;;;;;;4976732;28;20065;-67
2023/03/25 06:59:03;;;;;;;31.55;5.03;;;8.80;99.90;;;;;;4980380;28;20092;-65
2023/03/25 07:01:28;;;;;;;28.98;4.43;;;8.80;99.90;;;;;;4992123;28;20092;-65
2023/03/25 07:03:55;;;;;;;29.88;4.47;;;8.80;99.90;;;;;;4997430;28;20087;-64
2023/03/25 07:06:22;;;;;;;29.23;4.47;;;8.90;99.90;;;;;;4965113;28;20050;-66
2023/03/25 07:08:48;;;;;;;26.17;4.93;;;9.10;99.90;;;;;;4984339;28;20096;-65
2023/03/25 07:11:17;;;;;;;27.90;5.00;;;8.90;99.90;;;;;;4990350;28;20053;-65
2023/03/25 07:13:43;;;;;;;24.98;4.55;;;9.00;99.90;;;;;;4991104;28;20029;-66
2023/03/25 07:16:10;;;;;;;21.35;4.40;;;9.10;99.90;;;;;;4961513;28;20108;-64
2023/03/25 07:18:36;;;;;;;26.75;3.85;;;9.10;99.90;;;;;;4981014;28;20049;-65
2023/03/25 07:21:03;;;;;;;14.65;2.80;;;9.20;99.90;;;;;;4990786;28;20085;-64
2023/03/25 07:23:29;;;;;;;20.10;3.53;;;9.20;99.90;;;;;;4980427;28;20048;-65
2023/03/25 07:25:55;;;;;;;18.17;3.55;;;9.20;99.90;;;;;;4961635;28;20401;-66
2023/03/25 07:28:22;;;;;;;25.38;3.50;;;9.10;99.90;;;;;;4986207;28;20209;-65
2023/03/25 07:30:48;;;;;;;21.08;4.68;;;9.10;99.90;;;;;;4980272;28;20145;-65
2023/03/25 07:33:14;;;;;;;29.67;4.47;;;9.00;99.90;;;;;;4992908;28;20125;-67
2023/03/25 07:35:40;;;;;;;28.15;4.32;;;9.00;99.90;;;;;;4980135;28;20539;-65
2023/03/25 07:38:06;;;;;;;14.18;3.17;;;8.90;99.90;;;;;;4975580;28;20033;-65
2023/03/25 07:40:32;;;;;;;17.02;2.78;;;8.90;99.90;;;;;;4985026;28;20156;-65
2023/03/25 07:42:58;;;;;;;22.65;3.78;;;8.90;99.90;;;;;;4999773;28;20054;-64
2023/03/25 07:45:24;;;;;;;19.02;4.25;;;8.80;99.90;;;;;;5001630;28;20088;-64
2023/03/25 07:47:50;;;;;;;21.77;4.00;;;8.70;99.90;;;;;;5001667;28;20053;-65
2023/03/25 07:50:20;;;;;;;25.77;4.20;;;8.70;99.90;;;;;;5006895;28;20141;-66
2023/03/25 07:52:46;;;;;;;29.63;4.10;;;8.70;99.90;;;;;;4988978;28;20045;-66
2023/03/25 07:55:13;;;;;;;17.45;3.83;;;8.70;99.90;;;;;;5002505;28;20054;-65
2023/03/25 07:57:42;;;;;;;21.55;3.53;;;8.70;99.90;;;;;;4998010;28;20474;-66
2023/03/25 08:00:09;;;;;;;22.55;3.22;;;8.70;99.90;;;;;;4996204;28;20076;-66
2023/03/25 08:02:36;;;;;;;25.27;3.83;;;8.70;99.90;;;;;;5000775;28;20149;-66
2023/03/25 08:05:02;;;;;;;25.80;3.47;;;8.80;99.90;;;;;;4990059;28;20053;-65
2023/03/25 08:07:28;;;;;;;23.70;3.35;;;8.80;99.90;;;;;;4997324;28;20045;-65
2023/03/25 08:09:54;;;;;;;22.55;3.40;;;8.90;99.90;;;;;;4998955;28;20103;-65
2023/03/25 08:12:20;;;;;;;25.67;4.00;;;8.80;99.90;;;;;;4990578;28;20045;-65
2023/03/25 08:14:45;;;;;;;20.77;3.15;;;8.80;99.90;;;;;;4998356;28;20459;-65
2023/03/25 08:17:11;;;;;;;23.50;3.45;;;8.80;99.90;;;;;;5001970;28;20081;-66
2023/03/25 08:19:37;;;;;;;22.17;2.88;;;8.80;99.90;;;;;;4988917;28;20033;-65
2023/03/25 08:22:03;;;;;;;21.27;4.20;;;8.80;99.90;;;;;;4970433;28;20117;-64
2023/03/25 08:24:31;;;;;;;19.67;3.10;;;8.80;99.90;;;;;;4994976;28;20037;-65
2023/03/25 08:27:01;;;;;;;13.32;3.20;;;8.80;99.90;;;;;;4981681;28;20079;-66
2023/03/25 08:29:28;;;;;;;19.80;3.13;;;8.80;99.90;;;;;;4999942;28;20558;-66
2023/03/25 08:31:54;;;;;;;21.40;4.20;;;8.80;99.90;;;;;;5009846;28;20053;-65
2023/03/25 08:34:21;;;;;;;17.80;2.72;;;8.80;99.90;;;;;;4996350;28;20148;-65
2023/03/25 08:36:48;;;;;;;21.25;3.72;;;8.90;99.90;;;;;;5011690;28;20045;-65
2023/03/25 08:39:16;;;;;;;18.48;3.55;;;8.80;99.90;;;;;;4993132;28;20124;-65
2023/03/25 08:41:45;;;;;;;16.92;3.50;;;8.80;99.90;;;;;;5015912;28;20049;-65
2023/03/25 08:44:11;;;;;;;21.13;3.80;;;8.80;99.90;;;;;;5001017;28;20049;-65
2023/03/25 08:46:37;;;;;;;24.63;4.47;;;8.80;99.90;;;;;;5004852;28;20045;-65
2023/03/25 08:49:05;;;;;;;25.65;4.50;;;8.80;99.90;;;;;;4993321;28;20387;-66
2023/03/25 08:51:31;;;;;;;18.05;3.10;;;8.90;99.90;;;;;;4986058;28;20085;-65
2023/03/25 08:53:57;;;;;;;22.35;3.60;;;8.90;99.90;;;;;;4989229;28;20084;-65
2023/03/25 08:56:22;;;;;;;21.33;4.07;;;9.00;99.90;;;;;;4981264;28;20045;-66
2023/03/25 08:58:48;;;;;;;19.65;3.55;;;9.00;99.90;;;;;;4996169;28;20172;-65
2023/03/25 09:01:14;;;;;;;16.02;3.40;;;9.10;99.90;;;;;;4989183;28;20076;-66
2023/03/25 09:03:41;;;;;;;16.80;3.70;;;9.20;99.90;;;;;;4998452;28;20446;-65
2023/03/25 09:06:08;;;;;;;22.58;3.75;;;9.30;99.90;;;;;;5012359;28;20800;-65
2023/03/25 09:08:36;;;;;;;26.38;3.80;;;9.40;99.90;;;;;;5007609;28;20042;-65
2023/03/25 09:11:01;;;;;;;20.15;4.07;;;9.50;99.90;;;;;;4993472;28;20129;-64
2023/03/25 09:13:27;;;;;;;23.45;3.67;;;9.60;99.90;;;;;;4998395;28;20432;-64
2023/03/25 09:15:53;;;;;;;24.73;3.75;;;9.70;99.90;;;;;;4980534;28;20432;-65
2023/03/25 09:18:19;;;;;;;22.08;3.85;;;9.90;99.90;;;;;;4986998;28;20392;-65
2023/03/25 09:20:47;;;;;;;22.42;3.58;;;10.10;99.90;;;;;;5004897;28;20128;-67
2023/03/25 09:23:17;;;;;;;27.80;4.07;;;10.20;99.90;;;;;;5011295;28;20042;-65
2023/03/25 09:25:43;;;;;;;21.40;3.20;;;10.30;99.90;;;;;;4987501;28;20046;-65
2023/03/25 09:28:09;;;;;;;18.00;3.20;;;10.30;99.90;;;;;;4987560;28;20046;-66
2023/03/25 09:30:35;;;;;;;20.70;3.10;;;10.30;99.90;;;;;;4988199;28;20083;-65
2023/03/25 09:33:01;;;;;;;18.80;3.45;;;10.20;99.90;;;;;;5000322;28;20038;-65
2023/03/25 09:35:27;;;;;;;18.63;3.38;;;10.20;99.90;;;;;;4995457;28;20440;-65
2023/03/25 09:37:53;;;;;;;19.00;3.35;;;10.20;99.90;;;;;;4982277;28;20125;-64
2023/03/25 09:40:20;;;;;;;17.40;3.40;;;10.20;99.90;;;;;;4965687;28;20156;-65
2023/03/25 09:42:58;;;;;;;22.05;3.65;;;10.20;99.90;;;;;;5007694;28;20408;-65
2023/03/25 09:45:39;;;;;;;15.88;3.28;;;10.20;99.90;;;;;;5004776;28;20484;-65
2023/03/25 09:48:24;;;;;;;22.33;4.40;;;10.20;99.90;;;;;;5015350;28;20095;-64
2023/03/25 09:50:49;;;;;;;18.85;2.97;;;10.20;99.90;;;;;;5004592;28;20166;-64
2023/03/25 09:53:42;;;;;;;18.92;3.22;;;10.20;99.90;;;;;;4983710;28;20116;-66
2023/03/25 09:56:16;;;;;;;17.50;3.25;;;10.20;99.90;;;;;;4994679;28;20133;-64
2023/03/25 09:58:48;;;;;;;17.00;3.05;;;10.20;99.90;;;;;;4993810;28;20045;-64
2023/03/25 10:01:36;;;;;;;23.17;3.45;;;10.20;99.90;;;;;;4979796;28;20041;-65
2023/03/25 10:04:27;;;;;;;18.15;2.95;;;10.20;99.90;;;;;;4994754;28;20119;-65
2023/03/25 10:07:09;;;;;;;13.73;3.17;;;10.20;99.90;;;;;;4979873;28;20038;-65
2023/03/25 10:09:59;;;;;;;21.10;3.15;;;10.20;99.90;;;;;;5006636;28;20045;-64
2023/03/25 10:12:42;;;;;;;16.60;3.17;;;10.10;99.90;;;;;;5008461;28;20408;-65
2023/03/25 10:15:30;;;;;;;18.98;3.17;;;10.00;99.90;;;;;;4985688;28;20089;-65
2023/03/25 10:18:28;;;;;;;19.23;4.15;;;10.00;99.90;;;;;;4989487;28;20144;-64
2023/03/25 10:21:00;;;;;;;21.83;3.75;;;9.90;99.90;;;;;;4975799;28;20065;-64
2023/03/25 10:23:32;;;;;;;18.60;3.10;;;9.90;99.90;;;;;;4993284;28;20480;-64
2023/03/25 10:26:08;;;;;;;27.08;3.78;;;9.90;99.90;;;;;;5006193;28;20049;-64
2023/03/25 10:28:42;;;;;;;21.23;3.92;;;9.90;99.90;;;;;;4993784;28;20056;-64
2023/03/25 10:31:16;;;;;;;22.42;3.70;;;9.90;99.90;;;;;;4985399;28;20071;-65
2023/03/25 10:33:55;;;;;;;19.75;3.65;;;9.90;99.90;;;;;;4997977;28;20042;-65
2023/03/25 10:36:31;;;;;;;17.23;3.40;;;10.00;99.90;;;;;;4977917;28;20041;-64
2023/03/25 10:39:00;;;;;;;24.33;4.70;;;10.10;99.90;;;;;;4973115;28;20049;-65
2023/03/25 10:41:36;;;;;;;17.63;3.08;;;10.10;99.90;;;;;;4979481;28;20518;-66
2023/03/25 10:44:10;;;;;;;21.25;3.58;;;10.10;99.90;;;;;;4972709;28;20072;-66
2023/03/25 10:46:47;;;;;;;19.08;3.60;;;10.20;99.90;;;;;;4978423;28;20191;-65
2023/03/25 10:49:17;;;;;;;17.55;3.33;;;10.20;99.90;;;;;;4997070;28;20068;-64
2023/03/25 10:51:44;;;;;;;21.02;3.75;;;10.20;99.90;;;;;;4981503;28;20046;-65
2023/03/25 10:54:12;;;;;;;21.50;3.70;;;10.20;99.90;;;;;;4994488;28;20062;-66
2023/03/25 10:56:45;;;;;;;20.65;3.22;;;10.20;99.90;;;;;;4988296;28;20124;-65
2023/03/25 10:59:33;;;;;;;26.90;3.53;;;10.20;99.90;;;;;;4994225;28;20073;-64
2023/03/25 11:02:10;;;;;;;18.27;3.53;;;10.30;99.90;;;;;;4960687;28;20627;-66
2023/03/25 11:04:38;;;;;;;19.08;3.38;;;10.30;99.90;;;;;;5000843;28;20440;-64
2023/03/25 11:07:15;;;;;;;23.05;3.58;;;10.40;99.90;;;;;;5016200;28;20046;-65
2023/03/25 11:09:41;;;;;;;19.73;3.70;;;10.50;99.90;;;;;;5003258;28;20128;-65
2023/03/25 11:12:07;;;;;;;16.45;3.65;;;10.50;99.90;;;;;;5016491;28;20132;-64
2023/03/25 11:14:37;;;;;;;20.70;3.30;;;10.60;99.90;;;;;;5005130;28;20050;-64
2023/03/25 11:17:10;;;;;;;19.67;3.70;;;10.70;99.90;;;;;;4991063;28;20042;-64
2023/03/25 11:19:53;;;;;;;16.00;3.80;;;10.90;99.90;;;;;;5000963;28;20496;-65
2023/03/25 11:22:27;;;;;;;19.55;3.25;;;11.10;99.90;;;;;;5000643;28;20167;-66
2023/03/25 11:25:00;;;;;;;16.70;3.17;;;11.20;99.90;;;;;;4986730;28;20068;-67
2023/03/25 11:27:28;;;;;;;17.55;3.22;;;11.10;99.90;;;;;;4975798;28;21554;-67
2023/03/25 11:30:01;;;;;;;21.10;3.33;;;11.10;99.90;;;;;;4957135;28;20038;-66
2023/03/25 11:32:32;;;;;;;15.32;3.40;;;11.10;99.90;;;;;;4985295;28;20078;-65
2023/03/25 11:35:06;;;;;;;16.40;3.10;;;11.10;99.90;;;;;;4977127;28;20104;-66
2023/03/25 11:37:41;;;;;;;17.40;3.25;;;11.00;99.90;;;;;;4969193;28;20196;-64
2023/03/25 11:40:15;;;;;;;13.63;2.80;;;11.10;99.90;;;;;;4987616;28;20041;-66
2023/03/25 11:42:48;;;;;;;15.68;3.13;;;11.10;99.90;;;;;;5005718;28;20049;-65
2023/03/25 11:45:30;;;;;;;18.88;2.80;;;11.10;99.90;;;;;;4997150;28;20053;-65
2023/03/25 11:47:59;;;;;;;14.88;2.80;;;11.10;99.90;;;;;;4989270;28;20041;-65
2023/03/25 11:50:28;;;;;;;19.25;2.95;;;11.10;99.90;;;;;;4994458;28;20045;-66
2023/03/25 11:53:00;;;;;;;13.57;2.80;;;11.20;99.90;;;;;;4994279;28;20644;-64
2023/03/25 11:55:48;;;;;;;12.90;2.40;;;11.30;99.90;;;;;;4983122;28;20156;-66
2023/03/25 11:58:17;;;;;;;10.18;2.55;;;11.30;99.90;;;;;;4985651;28;20141;-65
2023/03/25 12:00:50;;;;;;;10.75;2.45;;;11.40;99.90;;;;;;4996868;28;20477;-64
2023/03/25 12:03:26;;;;;;;14.68;2.85;;;11.40;99.90;;;;;;4997128;28;20409;-65
2023/03/25 12:06:10;;;;;;;16.73;2.70;;;11.40;99.90;;;;;;4994060;28;20046;-64
2023/03/25 12:08:57;;;;;;;12.95;3.38;;;11.40;99.90;;;;;;4981361;28;20045;-65
2023/03/25 12:11:26;;;;;;;15.48;3.17;;;11.40;99.90;;;;;;5011959;28;20132;-64
2023/03/25 12:14:26;;;;;;;13.10;2.90;;;11.30;99.90;;;;;;5010060;28;20041;-64
2023/03/25 12:16:55;;;;;;;13.88;3.08;;;11.30;99.90;;;;;;5003996;28;20049;-66
2023/03/25 12:19:30;;;;;;;13.18;3.13;;;11.40;99.90;;;;;;4988131;28;20049;-65
2023/03/25 12:22:28;;;;;;;18.38;2.50;;;11.40;99.90;;;;;;4976533;28;20054;-65
2023/03/25 12:25:12;;;;;;;15.10;2.72;;;11.40;99.90;;;;;;4981880;28;21057;-67
2023/03/25 12:28:18;;;;;;;15.63;2.83;;;11.50;99.90;;;;;;5002162;28;20120;-64
2023/03/25 12:31:11;;;;;;;14.40;2.55;;;11.40;99.90;;;;;;4908651;28;20059;-64
2023/03/25 12:34:04;;;;;;;14.30;3.53;;;11.40;99.90;;;;;;5007186;28;20053;-65
2023/03/25 12:36:41;;;;;;;16.38;2.92;;;11.40;99.90;;;;;;4998931;28;20049;-64
2023/03/25 12:39:20;;;;;;;13.02;2.90;;;11.50;99.90;;;;;;4970927;28;20053;-65
2023/03/25 12:42:06;;;;;;;15.45;2.78;;;11.50;99.90;;;;;;4976475;28;20053;-66
2023/03/25 12:44:41;;;;;;;11.45;2.22;;;11.50;99.90;;;;;;4971776;28;20217;-67
2023/03/25 12:47:17;;;;;;;12.18;3.03;;;11.40;99.90;;;;;;4971173;28;20135;-66
2023/03/25 12:49:46;;;;;;;13.77;2.53;;;11.40;99.90;;;;;;4959776;28;20164;-64
2023/03/25 12:52:49;;;;;;;13.95;2.72;;;11.40;99.90;;;;;;4987078;28;20124;-64
2023/03/25 12:55:23;;;;;;;18.27;2.60;;;11.30;99.90;;;;;;4951255;28;21104;-64
2023/03/25 12:58:15;;;;;;;9.55;2.45;;;11.30;99.90;;;;;;4977275;28;20041;-64
2023/03/25 13:01:08;;;;;;;12.80;2.38;;;11.20;99.90;;;;;;4982563;28;21335;-66
2023/03/25 13:03:53;;;;;;;;;;;11.00;99.90;;;;;;4962935;28;20042;-66
2023/03/25 13:06:39;;;;;;;18.08;3.10;;;10.90;99.90;;;;;;4973991;28;19925;-67
2023/03/25 13:09:09;;;;;;;15.93;2.80;;;10.80;99.90;;;;;;4967056;28;20045;-68